Terminal Aerodrome Forecast
Issued by NWS Sterling, VA

Current Version | Previous Version | Text Only | Print | Product List | Glossary Off
Versions: 1 2 3 4 5 6 7 8 9 10 11 12 13 14 15 16 17 18 19 20 21 22 23 24

116
FTUS41 KLWX 251509 AAA
TAFIAD
TAF AMD
KIAD 251509Z 2515/2618 03012G20KT 5SM -RADZ BKN008 OVC015
     FM252100 02008KT 6SM -RA BKN008 OVC015
     FM260300 34006KT 6SM BR BKN008 OVC015
     FM261400 34005KT P6SM BKN015 OVC035
     FM261700 34008KT P6SM BKN025=

USA.gov is the U.S. government's official web portal to all federal, state and local government web resources and services.